sensor_id;sensor_type;location;lat;lon;timestamp;P1;durP1;ratioP1;P2;durP2;ratioP2
20505;SDS011;10411;48.148;7.704;2022-08-19T00:12:12;36.43;;;33.20;;
20505;SDS011;10411;48.148;7.704;2022-08-19T00:27:22;37.53;;;34.13;;
20505;SDS011;10411;48.148;7.704;2022-08-19T00:30:08;36.60;;;33.53;;
20505;SDS011;10411;48.148;7.704;2022-08-19T00:32:35;36.80;;;33.60;;
20505;SDS011;10411;48.148;7.704;2022-08-19T00:35:02;37.35;;;33.70;;
20505;SDS011;10411;48.148;7.704;2022-08-19T00:37:28;36.57;;;33.20;;
20505;SDS011;10411;48.148;7.704;2022-08-19T00:39:54;32.10;;;29.60;;
20505;SDS011;10411;48.148;7.704;2022-08-19T00:42:21;31.70;;;29.20;;
20505;SDS011;10411;48.148;7.704;2022-08-19T00:44:47;33.47;;;30.77;;
20505;SDS011;10411;48.148;7.704;2022-08-19T00:47:14;34.20;;;31.23;;
20505;SDS011;10411;48.148;7.704;2022-08-19T00:49:41;35.40;;;32.60;;
20505;SDS011;10411;48.148;7.704;2022-08-19T00:52:17;35.00;;;31.63;;
20505;SDS011;10411;48.148;7.704;2022-08-19T00:54:43;35.63;;;32.50;;
20505;SDS011;10411;48.148;7.704;2022-08-19T00:57:11;37.30;;;33.77;;
20505;SDS011;10411;48.148;7.704;2022-08-19T00:59:38;39.07;;;35.03;;
20505;SDS011;10411;48.148;7.704;2022-08-19T01:02:06;37.93;;;34.47;;
20505;SDS011;10411;48.148;7.704;2022-08-19T01:04:32;40.07;;;35.73;;
20505;SDS011;10411;48.148;7.704;2022-08-19T01:24:00;35.20;;;32.30;;
20505;SDS011;10411;48.148;7.704;2022-08-19T01:26:26;35.13;;;32.27;;
20505;SDS011;10411;48.148;7.704;2022-08-19T01:28:54;35.63;;;32.33;;
20505;SDS011;10411;48.148;7.704;2022-08-19T01:31:21;36.83;;;33.37;;
20505;SDS011;10411;48.148;7.704;2022-08-19T01:33:48;34.70;;;31.90;;
20505;SDS011;10411;48.148;7.704;2022-08-19T01:36:16;34.00;;;31.30;;
20505;SDS011;10411;48.148;7.704;2022-08-19T01:38:47;34.70;;;32.00;;
20505;SDS011;10411;48.148;7.704;2022-08-19T02:37:56;40.43;;;36.70;;
20505;SDS011;10411;48.148;7.704;2022-08-19T02:40:47;39.20;;;35.80;;
20505;SDS011;10411;48.148;7.704;2022-08-19T02:43:14;39.83;;;36.43;;
20505;SDS011;10411;48.148;7.704;2022-08-19T02:45:40;39.73;;;36.37;;
20505;SDS011;10411;48.148;7.704;2022-08-19T02:48:07;40.83;;;37.13;;
20505;SDS011;10411;48.148;7.704;2022-08-19T02:50:33;39.27;;;35.67;;
20505;SDS011;10411;48.148;7.704;2022-08-19T02:53:02;39.80;;;35.87;;
20505;SDS011;10411;48.148;7.704;2022-08-19T02:55:28;37.27;;;33.77;;
20505;SDS011;10411;48.148;7.704;2022-08-19T02:57:54;35.83;;;32.50;;
20505;SDS011;10411;48.148;7.704;2022-08-19T03:00:21;37.93;;;34.60;;
20505;SDS011;10411;48.148;7.704;2022-08-19T03:02:49;37.53;;;34.47;;
20505;SDS011;10411;48.148;7.704;2022-08-19T03:05:15;38.27;;;34.67;;
20505;SDS011;10411;48.148;7.704;2022-08-19T03:07:41;38.00;;;34.47;;
20505;SDS011;10411;48.148;7.704;2022-08-19T03:10:07;38.17;;;34.77;;
20505;SDS011;10411;48.148;7.704;2022-08-19T03:12:37;40.27;;;36.80;;
20505;SDS011;10411;48.148;7.704;2022-08-19T03:15:04;38.43;;;34.93;;
20505;SDS011;10411;48.148;7.704;2022-08-19T03:17:31;38.37;;;34.83;;
20505;SDS011;10411;48.148;7.704;2022-08-19T03:19:57;39.00;;;35.40;;
20505;SDS011;10411;48.148;7.704;2022-08-19T03:22:23;38.33;;;34.70;;
20505;SDS011;10411;48.148;7.704;2022-08-19T03:24:50;38.20;;;34.80;;
20505;SDS011;10411;48.148;7.704;2022-08-19T03:27:16;38.97;;;35.60;;
20505;SDS011;10411;48.148;7.704;2022-08-19T03:29:42;38.67;;;34.87;;
20505;SDS011;10411;48.148;7.704;2022-08-19T03:32:12;35.50;;;32.37;;
20505;SDS011;10411;48.148;7.704;2022-08-19T03:35:07;36.50;;;33.43;;
20505;SDS011;10411;48.148;7.704;2022-08-19T03:43:53;35.43;;;32.23;;
20505;SDS011;10411;48.148;7.704;2022-08-19T03:46:20;36.80;;;33.53;;
20505;SDS011;10411;48.148;7.704;2022-08-19T03:48:47;39.83;;;36.10;;
20505;SDS011;10411;48.148;7.704;2022-08-19T03:51:16;38.87;;;35.03;;
20505;SDS011;10411;48.148;7.704;2022-08-19T03:53:43;36.30;;;33.10;;
20505;SDS011;10411;48.148;7.704;2022-08-19T03:56:09;35.70;;;32.83;;
20505;SDS011;10411;48.148;7.704;2022-08-19T03:58:35;35.10;;;32.37;;
20505;SDS011;10411;48.148;7.704;2022-08-19T04:01:02;36.77;;;33.63;;
20505;SDS011;10411;48.148;7.704;2022-08-19T04:03:32;36.07;;;33.07;;
20505;SDS011;10411;48.148;7.704;2022-08-19T04:05:59;35.97;;;32.80;;
20505;SDS011;10411;48.148;7.704;2022-08-19T04:08:25;36.23;;;33.13;;
20505;SDS011;10411;48.148;7.704;2022-08-19T04:10:51;38.40;;;35.07;;
20505;SDS011;10411;48.148;7.704;2022-08-19T04:13:17;36.50;;;33.20;;
20505;SDS011;10411;48.148;7.704;2022-08-19T04:15:44;38.50;;;34.93;;
20505;SDS011;10411;48.148;7.704;2022-08-19T04:18:11;41.00;;;36.90;;
20505;SDS011;10411;48.148;7.704;2022-08-19T04:20:43;39.07;;;35.77;;
20505;SDS011;10411;48.148;7.704;2022-08-19T04:23:11;39.47;;;35.87;;
20505;SDS011;10411;48.148;7.704;2022-08-19T04:25:38;41.30;;;37.20;;
20505;SDS011;10411;48.148;7.704;2022-08-19T04:28:04;39.43;;;35.73;;
20505;SDS011;10411;48.148;7.704;2022-08-19T04:30:30;39.07;;;35.57;;
20505;SDS011;10411;48.148;7.704;2022-08-19T04:32:56;38.20;;;34.50;;
20505;SDS011;10411;48.148;7.704;2022-08-19T04:35:22;37.50;;;34.30;;
20505;SDS011;10411;48.148;7.704;2022-08-19T04:37:48;37.63;;;34.13;;
20505;SDS011;10411;48.148;7.704;2022-08-19T04:40:14;38.30;;;34.93;;
20505;SDS011;10411;48.148;7.704;2022-08-19T04:42:59;38.63;;;35.33;;
20505;SDS011;10411;48.148;7.704;2022-08-19T04:45:25;38.73;;;35.43;;
20505;SDS011;10411;48.148;7.704;2022-08-19T04:47:53;38.57;;;35.23;;
20505;SDS011;10411;48.148;7.704;2022-08-19T04:50:21;40.30;;;36.60;;
20505;SDS011;10411;48.148;7.704;2022-08-19T04:52:47;40.27;;;36.67;;
20505;SDS011;10411;48.148;7.704;2022-08-19T04:55:15;40.60;;;36.90;;
20505;SDS011;10411;48.148;7.704;2022-08-19T04:57:42;40.43;;;37.00;;
20505;SDS011;10411;48.148;7.704;2022-08-19T05:00:09;40.57;;;36.63;;
20505;SDS011;10411;48.148;7.704;2022-08-19T05:02:35;39.40;;;35.50;;
20505;SDS011;10411;48.148;7.704;2022-08-19T05:05:01;40.63;;;36.83;;
20505;SDS011;10411;48.148;7.704;2022-08-19T05:07:27;39.23;;;35.53;;
20505;SDS011;10411;48.148;7.704;2022-08-19T05:09:53;37.90;;;34.33;;
20505;SDS011;10411;48.148;7.704;2022-08-19T05:12:19;36.10;;;32.67;;
20505;SDS011;10411;48.148;7.704;2022-08-19T05:14:45;35.33;;;32.23;;
20505;SDS011;10411;48.148;7.704;2022-08-19T05:17:11;37.33;;;33.07;;
20505;SDS011;10411;48.148;7.704;2022-08-19T05:19:37;38.07;;;34.57;;
20505;SDS011;10411;48.148;7.704;2022-08-19T05:22:22;38.50;;;34.90;;
20505;SDS011;10411;48.148;7.704;2022-08-19T05:24:59;38.20;;;34.63;;
20505;SDS011;10411;48.148;7.704;2022-08-19T05:27:25;40.10;;;36.10;;
20505;SDS011;10411;48.148;7.704;2022-08-19T05:29:51;36.90;;;33.40;;
20505;SDS011;10411;48.148;7.704;2022-08-19T05:32:17;37.43;;;33.77;;
20505;SDS011;10411;48.148;7.704;2022-08-19T05:34:43;40.03;;;35.97;;
20505;SDS011;10411;48.148;7.704;2022-08-19T05:37:09;37.10;;;34.03;;
20505;SDS011;10411;48.148;7.704;2022-08-19T05:39:36;38.93;;;35.20;;
20505;SDS011;10411;48.148;7.704;2022-08-19T05:42:07;38.47;;;34.97;;
20505;SDS011;10411;48.148;7.704;2022-08-19T05:44:35;38.30;;;34.60;;
20505;SDS011;10411;48.148;7.704;2022-08-19T05:47:02;39.00;;;35.30;;
20505;SDS011;10411;48.148;7.704;2022-08-19T05:49:29;38.93;;;35.40;;
20505;SDS011;10411;48.148;7.704;2022-08-19T05:51:56;37.77;;;34.27;;
20505;SDS011;10411;48.148;7.704;2022-08-19T05:54:24;37.80;;;34.40;;
20505;SDS011;10411;48.148;7.704;2022-08-19T05:56:50;39.60;;;35.90;;
20505;SDS011;10411;48.148;7.704;2022-08-19T05:59:17;40.97;;;36.73;;
20505;SDS011;10411;48.148;7.704;2022-08-19T06:01:45;37.90;;;34.60;;
20505;SDS011;10411;48.148;7.704;2022-08-19T06:04:12;38.10;;;34.50;;
20505;SDS011;10411;48.148;7.704;2022-08-19T06:06:38;39.13;;;35.47;;
20505;SDS011;10411;48.148;7.704;2022-08-19T06:09:05;38.13;;;34.63;;
20505;SDS011;10411;48.148;7.704;2022-08-19T06:11:41;38.83;;;35.23;;
20505;SDS011;10411;48.148;7.704;2022-08-19T06:14:10;39.47;;;35.33;;
20505;SDS011;10411;48.148;7.704;2022-08-19T06:16:38;38.67;;;35.07;;
20505;SDS011;10411;48.148;7.704;2022-08-19T06:19:07;39.13;;;35.17;;
20505;SDS011;10411;48.148;7.704;2022-08-19T06:21:34;38.20;;;34.63;;
20505;SDS011;10411;48.148;7.704;2022-08-19T06:24:02;40.33;;;36.57;;
20505;SDS011;10411;48.148;7.704;2022-08-19T06:26:28;38.47;;;34.93;;
20505;SDS011;10411;48.148;7.704;2022-08-19T06:28:54;37.63;;;34.17;;
20505;SDS011;10411;48.148;7.704;2022-08-19T06:31:22;39.07;;;35.27;;
20505;SDS011;10411;48.148;7.704;2022-08-19T06:33:48;37.27;;;33.67;;
20505;SDS011;10411;48.148;7.704;2022-08-19T06:36:22;38.80;;;35.30;;
20505;SDS011;10411;48.148;7.704;2022-08-19T06:38:52;38.23;;;34.57;;
20505;SDS011;10411;48.148;7.704;2022-08-19T06:41:18;39.43;;;35.87;;
20505;SDS011;10411;48.148;7.704;2022-08-19T06:43:44;38.67;;;34.87;;
20505;SDS011;10411;48.148;7.704;2022-08-19T06:46:13;38.47;;;35.03;;
20505;SDS011;10411;48.148;7.704;2022-08-19T06:48:40;38.20;;;34.83;;
20505;SDS011;10411;48.148;7.704;2022-08-19T06:51:06;37.63;;;34.07;;
20505;SDS011;10411;48.148;7.704;2022-08-19T06:53:40;38.50;;;35.10;;
20505;SDS011;10411;48.148;7.704;2022-08-19T06:56:11;37.70;;;34.53;;
20505;SDS011;10411;48.148;7.704;2022-08-19T06:58:37;37.40;;;34.13;;
20505;SDS011;10411;48.148;7.704;2022-08-19T07:01:04;40.13;;;36.37;;
20505;SDS011;10411;48.148;7.704;2022-08-19T07:03:31;39.13;;;34.90;;
20505;SDS011;10411;48.148;7.704;2022-08-19T07:05:58;36.70;;;33.63;;
20505;SDS011;10411;48.148;7.704;2022-08-19T07:08:24;37.80;;;34.60;;
20505;SDS011;10411;48.148;7.704;2022-08-19T07:10:51;38.00;;;34.60;;
20505;SDS011;10411;48.148;7.704;2022-08-19T07:13:17;35.60;;;32.67;;
20505;SDS011;10411;48.148;7.704;2022-08-19T07:15:44;35.43;;;32.33;;
20505;SDS011;10411;48.148;7.704;2022-08-19T07:18:11;34.80;;;31.77;;
20505;SDS011;10411;48.148;7.704;2022-08-19T07:20:38;33.00;;;30.13;;
20505;SDS011;10411;48.148;7.704;2022-08-19T07:23:04;33.43;;;30.43;;
20505;SDS011;10411;48.148;7.704;2022-08-19T07:25:30;33.87;;;31.03;;
20505;SDS011;10411;48.148;7.704;2022-08-19T07:27:56;34.70;;;32.00;;
20505;SDS011;10411;48.148;7.704;2022-08-19T07:30:22;36.17;;;32.70;;
20505;SDS011;10411;48.148;7.704;2022-08-19T07:32:49;35.50;;;32.33;;
20505;SDS011;10411;48.148;7.704;2022-08-19T07:35:17;35.03;;;31.97;;
20505;SDS011;10411;48.148;7.704;2022-08-19T07:37:44;35.30;;;32.17;;
20505;SDS011;10411;48.148;7.704;2022-08-19T07:40:11;36.47;;;33.43;;
20505;SDS011;10411;48.148;7.704;2022-08-19T07:42:37;36.10;;;32.77;;
20505;SDS011;10411;48.148;7.704;2022-08-19T07:45:04;36.37;;;33.23;;
20505;SDS011;10411;48.148;7.704;2022-08-19T07:47:30;34.63;;;31.67;;
20505;SDS011;10411;48.148;7.704;2022-08-19T07:49:56;35.43;;;32.33;;
20505;SDS011;10411;48.148;7.704;2022-08-19T07:52:22;33.63;;;30.73;;
20505;SDS011;10411;48.148;7.704;2022-08-19T07:54:48;32.63;;;30.03;;
20505;SDS011;10411;48.148;7.704;2022-08-19T07:57:15;34.80;;;31.83;;
20505;SDS011;10411;48.148;7.704;2022-08-19T07:59:41;33.27;;;30.40;;
20505;SDS011;10411;48.148;7.704;2022-08-19T08:02:08;35.00;;;31.80;;
20505;SDS011;10411;48.148;7.704;2022-08-19T08:04:34;33.57;;;30.90;;
20505;SDS011;10411;48.148;7.704;2022-08-19T08:07:19;33.47;;;30.47;;
20505;SDS011;10411;48.148;7.704;2022-08-19T08:10:04;33.53;;;30.83;;
20505;SDS011;10411;48.148;7.704;2022-08-19T08:12:33;34.83;;;31.87;;
20505;SDS011;10411;48.148;7.704;2022-08-19T08:15:00;34.47;;;31.57;;
20505;SDS011;10411;48.148;7.704;2022-08-19T08:17:27;35.90;;;32.70;;
20505;SDS011;10411;48.148;7.704;2022-08-19T08:19:54;34.87;;;31.90;;
20505;SDS011;10411;48.148;7.704;2022-08-19T08:22:21;36.17;;;33.20;;
20505;SDS011;10411;48.148;7.704;2022-08-19T08:25:07;34.30;;;31.50;;
20505;SDS011;10411;48.148;7.704;2022-08-19T08:27:37;36.77;;;33.57;;
20505;SDS011;10411;48.148;7.704;2022-08-19T08:30:05;36.90;;;33.63;;
20505;SDS011;10411;48.148;7.704;2022-08-19T08:32:34;35.87;;;32.63;;
20505;SDS011;10411;48.148;7.704;2022-08-19T08:35:00;35.43;;;32.67;;
20505;SDS011;10411;48.148;7.704;2022-08-19T08:37:26;36.23;;;32.97;;
20505;SDS011;10411;48.148;7.704;2022-08-19T08:39:52;36.67;;;33.27;;
20505;SDS011;10411;48.148;7.704;2022-08-19T08:45:05;36.70;;;33.30;;
20505;SDS011;10411;48.148;7.704;2022-08-19T08:47:36;35.63;;;32.43;;
20505;SDS011;10411;48.148;7.704;2022-08-19T08:50:04;37.57;;;34.37;;
20505;SDS011;10411;48.148;7.704;2022-08-19T08:52:33;38.20;;;34.60;;
20505;SDS011;10411;48.148;7.704;2022-08-19T08:55:00;38.37;;;34.80;;
20505;SDS011;10411;48.148;7.704;2022-08-19T08:57:35;37.93;;;34.43;;
20505;SDS011;10411;48.148;7.704;2022-08-19T09:00:04;38.37;;;35.07;;
20505;SDS011;10411;48.148;7.704;2022-08-19T09:02:31;36.53;;;33.47;;
20505;SDS011;10411;48.148;7.704;2022-08-19T09:04:57;37.70;;;34.33;;
20505;SDS011;10411;48.148;7.704;2022-08-19T09:07:39;38.47;;;35.00;;
20505;SDS011;10411;48.148;7.704;2022-08-19T09:15:10;38.77;;;35.20;;
20505;SDS011;10411;48.148;7.704;2022-08-19T09:17:37;39.97;;;36.57;;
20505;SDS011;10411;48.148;7.704;2022-08-19T09:22:38;37.70;;;34.20;;
20505;SDS011;10411;48.148;7.704;2022-08-19T09:25:05;39.47;;;35.77;;
20505;SDS011;10411;48.148;7.704;2022-08-19T09:27:32;38.90;;;35.30;;
20505;SDS011;10411;48.148;7.704;2022-08-19T09:29:58;39.80;;;36.30;;
20505;SDS011;10411;48.148;7.704;2022-08-19T09:32:24;39.23;;;35.53;;
20505;SDS011;10411;48.148;7.704;2022-08-19T09:34:51;40.77;;;36.73;;
20505;SDS011;10411;48.148;7.704;2022-08-19T09:37:20;42.20;;;38.30;;
20505;SDS011;10411;48.148;7.704;2022-08-19T09:39:47;40.07;;;36.47;;
20505;SDS011;10411;48.148;7.704;2022-08-19T09:42:13;38.70;;;35.43;;
20505;SDS011;10411;48.148;7.704;2022-08-19T09:44:39;38.27;;;34.60;;
20505;SDS011;10411;48.148;7.704;2022-08-19T09:47:06;39.17;;;35.30;;
20505;SDS011;10411;48.148;7.704;2022-08-19T09:49:32;37.90;;;34.73;;
20505;SDS011;10411;48.148;7.704;2022-08-19T09:51:58;40.40;;;36.27;;
20505;SDS011;10411;48.148;7.704;2022-08-19T09:54:25;37.40;;;34.23;;
20505;SDS011;10411;48.148;7.704;2022-08-19T09:56:51;38.77;;;35.27;;
20505;SDS011;10411;48.148;7.704;2022-08-19T09:59:17;39.20;;;35.90;;
20505;SDS011;10411;48.148;7.704;2022-08-19T10:01:43;39.33;;;35.73;;
20505;SDS011;10411;48.148;7.704;2022-08-19T10:04:09;40.67;;;36.83;;
20505;SDS011;10411;48.148;7.704;2022-08-19T10:06:37;40.23;;;36.47;;
20505;SDS011;10411;48.148;7.704;2022-08-19T10:09:04;42.83;;;38.97;;
20505;SDS011;10411;48.148;7.704;2022-08-19T10:11:31;41.07;;;37.27;;
20505;SDS011;10411;48.148;7.704;2022-08-19T10:13:57;40.03;;;36.23;;
20505;SDS011;10411;48.148;7.704;2022-08-19T10:16:24;38.83;;;35.63;;
20505;SDS011;10411;48.148;7.704;2022-08-19T10:18:51;40.90;;;37.33;;
20505;SDS011;10411;48.148;7.704;2022-08-19T10:21:21;40.97;;;37.27;;
20505;SDS011;10411;48.148;7.704;2022-08-19T10:23:49;40.83;;;37.33;;
20505;SDS011;10411;48.148;7.704;2022-08-19T10:26:17;41.60;;;37.53;;
20505;SDS011;10411;48.148;7.704;2022-08-19T10:28:43;39.60;;;35.87;;
20505;SDS011;10411;48.148;7.704;2022-08-19T10:31:11;40.43;;;36.97;;
20505;SDS011;10411;48.148;7.704;2022-08-19T10:33:37;39.80;;;36.40;;
20505;SDS011;10411;48.148;7.704;2022-08-19T10:36:04;40.07;;;36.53;;
20505;SDS011;10411;48.148;7.704;2022-08-19T10:38:31;38.33;;;34.70;;
20505;SDS011;10411;48.148;7.704;2022-08-19T10:40:57;41.53;;;37.63;;
20505;SDS011;10411;48.148;7.704;2022-08-19T10:43:23;37.67;;;34.17;;
20505;SDS011;10411;48.148;7.704;2022-08-19T10:45:53;38.07;;;34.67;;
20505;SDS011;10411;48.148;7.704;2022-08-19T10:48:21;38.37;;;34.43;;
20505;SDS011;10411;48.148;7.704;2022-08-19T10:50:47;39.27;;;35.77;;
20505;SDS011;10411;48.148;7.704;2022-08-19T10:53:32;39.07;;;35.63;;
20505;SDS011;10411;48.148;7.704;2022-08-19T10:55:58;37.83;;;34.50;;
20505;SDS011;10411;48.148;7.704;2022-08-19T10:58:42;38.33;;;34.63;;
20505;SDS011;10411;48.148;7.704;2022-08-19T11:01:09;39.57;;;35.90;;
20505;SDS011;10411;48.148;7.704;2022-08-19T11:03:35;37.27;;;33.87;;
20505;SDS011;10411;48.148;7.704;2022-08-19T11:06:02;37.57;;;34.13;;
20505;SDS011;10411;48.148;7.704;2022-08-19T11:08:29;36.70;;;33.40;;
20505;SDS011;10411;48.148;7.704;2022-08-19T11:10:57;36.10;;;32.70;;
20505;SDS011;10411;48.148;7.704;2022-08-19T11:13:24;41.77;;;37.83;;
20505;SDS011;10411;48.148;7.704;2022-08-19T11:15:56;42.27;;;38.17;;
20505;SDS011;10411;48.148;7.704;2022-08-19T11:18:22;36.43;;;33.03;;
20505;SDS011;10411;48.148;7.704;2022-08-19T11:20:48;35.77;;;32.83;;
20505;SDS011;10411;48.148;7.704;2022-08-19T11:23:14;35.67;;;32.63;;
20505;SDS011;10411;48.148;7.704;2022-08-19T11:25:40;37.27;;;33.67;;
20505;SDS011;10411;48.148;7.704;2022-08-19T11:28:06;37.47;;;33.80;;
20505;SDS011;10411;48.148;7.704;2022-08-19T11:30:32;37.07;;;33.80;;
20505;SDS011;10411;48.148;7.704;2022-08-19T11:33:00;35.93;;;33.03;;
20505;SDS011;10411;48.148;7.704;2022-08-19T11:35:27;40.17;;;36.57;;
20505;SDS011;10411;48.148;7.704;2022-08-19T11:37:53;38.27;;;34.97;;
20505;SDS011;10411;48.148;7.704;2022-08-19T11:40:21;38.53;;;35.10;;
20505;SDS011;10411;48.148;7.704;2022-08-19T11:42:47;38.17;;;34.90;;
20505;SDS011;10411;48.148;7.704;2022-08-19T11:45:26;40.37;;;35.90;;
20505;SDS011;10411;48.148;7.704;2022-08-19T11:47:54;36.07;;;32.90;;
20505;SDS011;10411;48.148;7.704;2022-08-19T11:50:21;36.67;;;33.63;;
20505;SDS011;10411;48.148;7.704;2022-08-19T11:52:48;36.50;;;33.27;;
20505;SDS011;10411;48.148;7.704;2022-08-19T11:55:14;36.30;;;33.20;;
20505;SDS011;10411;48.148;7.704;2022-08-19T11:57:41;38.70;;;35.20;;
20505;SDS011;10411;48.148;7.704;2022-08-19T12:00:08;38.80;;;35.30;;
20505;SDS011;10411;48.148;7.704;2022-08-19T12:02:36;37.57;;;33.97;;
20505;SDS011;10411;48.148;7.704;2022-08-19T12:05:02;35.97;;;32.87;;
20505;SDS011;10411;48.148;7.704;2022-08-19T12:07:29;35.57;;;32.27;;
20505;SDS011;10411;48.148;7.704;2022-08-19T12:09:58;38.93;;;35.00;;
20505;SDS011;10411;48.148;7.704;2022-08-19T12:12:24;37.00;;;33.70;;
20505;SDS011;10411;48.148;7.704;2022-08-19T12:14:50;36.83;;;33.53;;
20505;SDS011;10411;48.148;7.704;2022-08-19T12:17:21;35.60;;;32.80;;
20505;SDS011;10411;48.148;7.704;2022-08-19T12:19:47;36.80;;;33.73;;
20505;SDS011;10411;48.148;7.704;2022-08-19T12:22:13;38.30;;;35.23;;
20505;SDS011;10411;48.148;7.704;2022-08-19T12:24:39;35.40;;;32.40;;
20505;SDS011;10411;48.148;7.704;2022-08-19T12:27:05;32.97;;;30.40;;
20505;SDS011;10411;48.148;7.704;2022-08-19T12:29:31;34.30;;;31.47;;
20505;SDS011;10411;48.148;7.704;2022-08-19T12:31:58;33.73;;;30.97;;
20505;SDS011;10411;48.148;7.704;2022-08-19T12:34:26;34.77;;;31.87;;
20505;SDS011;10411;48.148;7.704;2022-08-19T12:36:55;35.53;;;31.87;;
20505;SDS011;10411;48.148;7.704;2022-08-19T12:39:21;34.60;;;31.63;;
20505;SDS011;10411;48.148;7.704;2022-08-19T12:41:46;33.77;;;30.77;;
20505;SDS011;10411;48.148;7.704;2022-08-19T12:44:13;34.03;;;31.23;;
20505;SDS011;10411;48.148;7.704;2022-08-19T12:46:39;32.73;;;30.13;;
20505;SDS011;10411;48.148;7.704;2022-08-19T12:49:05;33.60;;;30.67;;
20505;SDS011;10411;48.148;7.704;2022-08-19T12:51:31;31.67;;;29.27;;
20505;SDS011;10411;48.148;7.704;2022-08-19T12:53:57;32.57;;;29.90;;
20505;SDS011;10411;48.148;7.704;2022-08-19T12:56:24;31.97;;;29.47;;
20505;SDS011;10411;48.148;7.704;2022-08-19T12:58:50;32.10;;;29.50;;
20505;SDS011;10411;48.148;7.704;2022-08-19T13:01:16;31.60;;;28.90;;
20505;SDS011;10411;48.148;7.704;2022-08-19T13:03:44;29.63;;;27.40;;
20505;SDS011;10411;48.148;7.704;2022-08-19T13:06:10;29.00;;;26.80;;
20505;SDS011;10411;48.148;7.704;2022-08-19T13:08:36;29.90;;;27.77;;
20505;SDS011;10411;48.148;7.704;2022-08-19T13:11:10;30.10;;;27.80;;
20505;SDS011;10411;48.148;7.704;2022-08-19T13:13:38;29.43;;;27.20;;
20505;SDS011;10411;48.148;7.704;2022-08-19T13:16:06;28.90;;;26.73;;
20505;SDS011;10411;48.148;7.704;2022-08-19T13:18:32;28.33;;;26.23;;
20505;SDS011;10411;48.148;7.704;2022-08-19T13:21:01;28.73;;;26.70;;
20505;SDS011;10411;48.148;7.704;2022-08-19T13:23:28;27.83;;;25.73;;
20505;SDS011;10411;48.148;7.704;2022-08-19T13:25:56;28.40;;;26.23;;
20505;SDS011;10411;48.148;7.704;2022-08-19T13:28:22;30.93;;;28.03;;
20505;SDS011;10411;48.148;7.704;2022-08-19T13:30:48;29.50;;;27.00;;
20505;SDS011;10411;48.148;7.704;2022-08-19T13:33:33;29.00;;;26.73;;
20505;SDS011;10411;48.148;7.704;2022-08-19T13:35:59;28.60;;;26.60;;
20505;SDS011;10411;48.148;7.704;2022-08-19T13:38:26;28.93;;;26.70;;
20505;SDS011;10411;48.148;7.704;2022-08-19T13:40:52;27.87;;;25.57;;
20505;SDS011;10411;48.148;7.704;2022-08-19T13:43:20;28.17;;;26.17;;
20505;SDS011;10411;48.148;7.704;2022-08-19T13:45:50;27.80;;;25.70;;
20505;SDS011;10411;48.148;7.704;2022-08-19T13:48:18;27.50;;;25.53;;
20505;SDS011;10411;48.148;7.704;2022-08-19T13:50:44;28.70;;;26.70;;
20505;SDS011;10411;48.148;7.704;2022-08-19T13:53:12;30.23;;;27.83;;
20505;SDS011;10411;48.148;7.704;2022-08-19T13:55:38;27.47;;;25.40;;
20505;SDS011;10411;48.148;7.704;2022-08-19T13:58:04;28.90;;;26.60;;
20505;SDS011;10411;48.148;7.704;2022-08-19T14:00:32;27.40;;;25.20;;
20505;SDS011;10411;48.148;7.704;2022-08-19T14:02:58;27.07;;;25.27;;
20505;SDS011;10411;48.148;7.704;2022-08-19T14:05:25;27.67;;;25.67;;
20505;SDS011;10411;48.148;7.704;2022-08-19T14:07:52;27.70;;;25.50;;
20505;SDS011;10411;48.148;7.704;2022-08-19T14:10:18;27.33;;;25.40;;
20505;SDS011;10411;48.148;7.704;2022-08-19T14:12:44;29.60;;;27.40;;
20505;SDS011;10411;48.148;7.704;2022-08-19T14:15:11;29.33;;;27.10;;
20505;SDS011;10411;48.148;7.704;2022-08-19T14:17:38;28.43;;;26.43;;
20505;SDS011;10411;48.148;7.704;2022-08-19T14:20:04;29.40;;;27.00;;
20505;SDS011;10411;48.148;7.704;2022-08-19T14:22:33;28.87;;;26.53;;
20505;SDS011;10411;48.148;7.704;2022-08-19T14:24:59;29.27;;;26.60;;
20505;SDS011;10411;48.148;7.704;2022-08-19T14:27:25;29.73;;;27.13;;
20505;SDS011;10411;48.148;7.704;2022-08-19T14:29:51;29.37;;;27.17;;
20505;SDS011;10411;48.148;7.704;2022-08-19T14:32:17;29.07;;;26.87;;
20505;SDS011;10411;48.148;7.704;2022-08-19T14:34:43;27.87;;;25.80;;
20505;SDS011;10411;48.148;7.704;2022-08-19T14:37:13;28.60;;;26.40;;
20505;SDS011;10411;48.148;7.704;2022-08-19T14:39:39;31.43;;;28.83;;
20505;SDS011;10411;48.148;7.704;2022-08-19T14:42:08;31.03;;;28.70;;
20505;SDS011;10411;48.148;7.704;2022-08-19T14:44:34;30.07;;;27.63;;
20505;SDS011;10411;48.148;7.704;2022-08-19T14:47:00;30.07;;;27.73;;
20505;SDS011;10411;48.148;7.704;2022-08-19T14:49:26;30.77;;;28.47;;
20505;SDS011;10411;48.148;7.704;2022-08-19T14:51:52;30.00;;;27.47;;
20505;SDS011;10411;48.148;7.704;2022-08-19T14:54:19;30.70;;;28.13;;
20505;SDS011;10411;48.148;7.704;2022-08-19T14:56:45;30.27;;;27.67;;
20505;SDS011;10411;48.148;7.704;2022-08-19T14:59:11;31.47;;;28.97;;
20505;SDS011;10411;48.148;7.704;2022-08-19T15:01:37;30.57;;;28.23;;
20505;SDS011;10411;48.148;7.704;2022-08-19T15:04:03;31.77;;;28.97;;
20505;SDS011;10411;48.148;7.704;2022-08-19T15:06:29;32.07;;;29.00;;
20505;SDS011;10411;48.148;7.704;2022-08-19T15:08:56;30.30;;;27.80;;
20505;SDS011;10411;48.148;7.704;2022-08-19T15:11:23;31.27;;;29.00;;
20505;SDS011;10411;48.148;7.704;2022-08-19T15:13:50;30.70;;;28.20;;
20505;SDS011;10411;48.148;7.704;2022-08-19T15:16:16;31.77;;;28.97;;
20505;SDS011;10411;48.148;7.704;2022-08-19T15:18:43;30.97;;;28.37;;
20505;SDS011;10411;48.148;7.704;2022-08-19T15:21:10;31.30;;;28.80;;
20505;SDS011;10411;48.148;7.704;2022-08-19T15:23:41;30.53;;;28.03;;
20505;SDS011;10411;48.148;7.704;2022-08-19T15:26:07;29.30;;;27.10;;
20505;SDS011;10411;48.148;7.704;2022-08-19T15:28:35;30.00;;;27.50;;
20505;SDS011;10411;48.148;7.704;2022-08-19T15:31:01;28.77;;;26.57;;
20505;SDS011;10411;48.148;7.704;2022-08-19T15:33:27;29.33;;;27.10;;
20505;SDS011;10411;48.148;7.704;2022-08-19T15:35:53;29.70;;;27.37;;
20505;SDS011;10411;48.148;7.704;2022-08-19T15:38:19;29.47;;;27.30;;
20505;SDS011;10411;48.148;7.704;2022-08-19T15:40:49;30.67;;;28.23;;
20505;SDS011;10411;48.148;7.704;2022-08-19T15:43:16;30.60;;;28.20;;
20505;SDS011;10411;48.148;7.704;2022-08-19T15:45:43;30.80;;;28.40;;
20505;SDS011;10411;48.148;7.704;2022-08-19T15:48:10;29.70;;;27.30;;
20505;SDS011;10411;48.148;7.704;2022-08-19T15:50:36;29.90;;;27.47;;
20505;SDS011;10411;48.148;7.704;2022-08-19T15:53:04;30.10;;;27.80;;
20505;SDS011;10411;48.148;7.704;2022-08-19T15:55:32;29.63;;;27.43;;
20505;SDS011;10411;48.148;7.704;2022-08-19T15:57:59;30.60;;;28.00;;
20505;SDS011;10411;48.148;7.704;2022-08-19T16:00:43;29.37;;;27.07;;
20505;SDS011;10411;48.148;7.704;2022-08-19T16:03:28;29.30;;;26.90;;
20505;SDS011;10411;48.148;7.704;2022-08-19T16:06:12;29.20;;;26.77;;
20505;SDS011;10411;48.148;7.704;2022-08-19T16:08:54;28.40;;;26.20;;
20505;SDS011;10411;48.148;7.704;2022-08-19T16:11:21;29.77;;;27.37;;
20505;SDS011;10411;48.148;7.704;2022-08-19T16:13:48;30.87;;;28.37;;
20505;SDS011;10411;48.148;7.704;2022-08-19T16:16:15;29.17;;;27.07;;
20505;SDS011;10411;48.148;7.704;2022-08-19T16:18:41;28.60;;;26.40;;